My Meet Scores
Sadie Webb, Aspire Gymnastics Academy - MyMeetScores.com
Top100 | Top Teams | Upcoming Meets | Completed Meets | Latest | Add Scores | Help| Support | Bookmark and Share

Sadie Webb, Aspire Gymnastics Academy
Personal Bests
LevelVault BarsBeamFloorAA
39.7259.325 9.2759.42537.750
49.7009.900 9.7759.50038.450
Scores on America's Top 100as of 10.16.2019
Year Level Vault Bars Beam Floor AA
2019 49.7009.90038.450

Click here to view our
exclusive Top 100 Collection
Meet Scores
Date Meet Team Session Level Division Vault Bars Beam Floor AA
2019-03-22 Illinois Gymnastics State Championships Aspire Gymnastics Academy 8 4 Ch F 9.450 1T 9.725 1 9.775 1 9.500 1T 38.450 1
2019-03-08 Lucky Invite Aspire Gymnastics Academy A09 4 Jr A 9.700 1 9.900 2T 9.425 4 9.325 3 38.350 2
2019-02-23 Kinetic Classic 2019 Aspire Gymnastics Academy 1 4 Younger 9.075 127T 9.625 9T 9.175 173T 9.200 146T 37.075 42T
2019-02-15 Big ClassicBIG CLASSIC Aspire Gymnastics Academy 5A 4 Child B 9.575 1 9.275 2 9.550 1 9.200 3 37.600 1
2019-01-25 UGA Invitational Aspire Gymnastics Academy B06 4 Ch B 9.475 1 9.425 4 9.575 1 9.400 2 37.875 1
2019-01-18 2019 Bravo Classic Aspire Gymnastics Academy 3B 4 Child 9.575 2 9.300 6 9.300 1 9.075 10 37.250 2
2018-12-14 2018 Aspire Classic Aspire Gymnastics Academy 5A 4 Younger 9.325 1 9.500 1 9.450 4T 9.150 9T 37.425 1
2018-12-07 St. Nick Invite 2018 Aspire Gymnastics Academy 5A 4 JrB 9.500 2 9.500 4T 9.175 4 9.150 5 37.325 2
2018-11-17 Paul Hamm Thanksgiving Class WOMENS Aspire Gymnastics Academy 6 4 Younger 9.450 2 9.700 1 9.375 2 9.100 11T 37.625 2
2018-03-08 Level 4 & 5 State Aspire Gymnastics Academy All 4 Ch B 8.700 9 8.925 6T 9.200 9 8.575 23 35.400 10
2018-02-16 Big Classic Aspire Gymnastics Academy 2B 4 Child A 8.525 9 8.950 8T 9.100 6 8.925 12 35.500 9
2018-01-26 2018 UGA Classic Aspire Gymnastics Academy B2 4 Jr A 8.450 8T 8.250 12 9.125 7 9.000 9 34.825 10
2018-01-19 2018 Bravo Classic Aspire Gymnastics Academy 11B 4 Child 8.050 8 8.200 13T 9.000 10T 8.925 12 34.175 11
2017-12-15 2017 Aspire Classic Aspire Gymnastics Academy 3 4 Jr A 8.550 13T 8.100 22 8.650 18 8.525 18T 33.825 21T
2017-12-08 St. Nick Invite Aspire Gymnastics Academy 7A 4 JrA 8.850 11T 8.300 17 9.275 7 8.925 9T 35.350 12
2017-03-30 2017 Illinois Level 3 & 5 State Gymnastics X-Calibur All 3 Ch B 9.725 1 9.325 12T 9.275 5 9.425 2 37.750 2
2017-02-24 St. Louis Classic Gymnastics X-Calibur B-8 3 Jr A 9.350 2 9.050 7 8.000 10T 8.850 8T 35.250 6
2017-02-03 St. Valentines Classic Womens Gymnastics X-Calibur 3A 3 6-8 yrs. 9.500 2 9.275 5 8.625 6 8.750 7 36.150 5
2017-01-13 St Jude Benefit Meet Gymnastics X-Calibur 8A 3 Jr A 9.125 2T 8.900 7T 8.725 3 9.000 6 35.750 4
2016-12-02 Ultimate Wish Classic Gymnastics X-Calibur 11 3 Jr A 8.850 7 8.450 13 8.350 16T 9.000 11T 34.650 14
Get your scores on
a t-shirt, pin, or hoodie

www.lazysuits.com